sim
Sign-in with your pilot id or email,
or register
Callsign
Passwort

Schedule Details

Flight Number: EWG1701 (3)
Departure: Thessaloniki International Airport (LGTS) at 19:00
Arrival: Munich Airport (EDDM) at 21:25
Route: Eurowings Passenger Schedule. Enter filed route here before submitting Pirep.

Weather Information
Getting current METAR information for LGTS 010750Z VRB02KT CAVOK 20/08 Q1010 NOSIG
Getting current METAR information for EDDM 010750Z 10003KT 080V140 2000 1100NE R08L/P2000N R08R/0900N BCFG FEW001 SCT003 07/07 Q1008 BECMG 5000

Schedule Frequency

Route Map